sensor_id;sensor_type;location;lat;lon;timestamp;temperature;humidity
74822;DHT22;63353;48.702;8.884;2023-07-13T00:00:33;16.00;99.90
74822;DHT22;63353;48.702;8.884;2023-07-13T00:03:02;16.00;99.90
74822;DHT22;63353;48.702;8.884;2023-07-13T00:05:28;15.90;99.90
74822;DHT22;63353;48.702;8.884;2023-07-13T00:08:00;15.90;99.90
74822;DHT22;63353;48.702;8.884;2023-07-13T00:10:25;15.90;99.90
74822;DHT22;63353;48.702;8.884;2023-07-13T00:12:52;15.80;99.90
74822;DHT22;63353;48.702;8.884;2023-07-13T00:15:22;15.80;99.90
74822;DHT22;63353;48.702;8.884;2023-07-13T00:17:53;15.70;99.90
74822;DHT22;63353;48.702;8.884;2023-07-13T00:20:29;15.70;99.90
74822;DHT22;63353;48.702;8.884;2023-07-13T00:23:00;15.60;99.90
74822;DHT22;63353;48.702;8.884;2023-07-13T00:25:32;15.70;99.90
74822;DHT22;63353;48.702;8.884;2023-07-13T00:27:57;15.70;99.90
74822;DHT22;63353;48.702;8.884;2023-07-13T00:30:23;15.70;99.90
74822;DHT22;63353;48.702;8.884;2023-07-13T00:32:55;15.70;99.90
74822;DHT22;63353;48.702;8.884;2023-07-13T00:35:29;15.80;99.90
74822;DHT22;63353;48.702;8.884;2023-07-13T00:38:01;16.00;99.90
74822;DHT22;63353;48.702;8.884;2023-07-13T00:40:27;16.20;99.90
74822;DHT22;63353;48.702;8.884;2023-07-13T00:42:53;16.20;99.90
74822;DHT22;63353;48.702;8.884;2023-07-13T00:47:47;16.30;99.90
74822;DHT22;63353;48.702;8.884;2023-07-13T00:50:15;16.40;99.90
74822;DHT22;63353;48.702;8.884;2023-07-13T00:52:52;16.50;99.90
74822;DHT22;63353;48.702;8.884;2023-07-13T00:55:19;16.50;99.90
74822;DHT22;63353;48.702;8.884;2023-07-13T00:57:46;16.50;99.90
74822;DHT22;63353;48.702;8.884;2023-07-13T01:00:12;16.50;99.90
74822;DHT22;63353;48.702;8.884;2023-07-13T01:02:41;16.40;99.90
74822;DHT22;63353;48.702;8.884;2023-07-13T01:05:15;16.40;99.90
74822;DHT22;63353;48.702;8.884;2023-07-13T01:07:44;16.40;99.90
74822;DHT22;63353;48.702;8.884;2023-07-13T01:10:12;16.30;99.90
74822;DHT22;63353;48.702;8.884;2023-07-13T01:12:41;16.20;99.90
74822;DHT22;63353;48.702;8.884;2023-07-13T01:18:13;16.00;99.90
74822;DHT22;63353;48.702;8.884;2023-07-13T01:20:41;15.80;99.90
74822;DHT22;63353;48.702;8.884;2023-07-13T01:23:09;15.80;99.90
74822;DHT22;63353;48.702;8.884;2023-07-13T01:25:36;15.70;99.90
74822;DHT22;63353;48.702;8.884;2023-07-13T01:28:09;15.60;99.90
74822;DHT22;63353;48.702;8.884;2023-07-13T01:30:36;15.40;99.90
74822;DHT22;63353;48.702;8.884;2023-07-13T01:33:03;15.30;99.90
74822;DHT22;63353;48.702;8.884;2023-07-13T01:35:29;15.30;99.90
74822;DHT22;63353;48.702;8.884;2023-07-13T01:38:01;15.20;99.90
74822;DHT22;63353;48.702;8.884;2023-07-13T01:40:28;15.20;99.90
74822;DHT22;63353;48.702;8.884;2023-07-13T01:42:55;15.00;99.90
74822;DHT22;63353;48.702;8.884;2023-07-13T01:45:21;15.00;99.90
74822;DHT22;63353;48.702;8.884;2023-07-13T01:47:46;14.90;99.90
74822;DHT22;63353;48.702;8.884;2023-07-13T01:50:15;14.80;99.90
74822;DHT22;63353;48.702;8.884;2023-07-13T01:52:41;14.80;99.90
74822;DHT22;63353;48.702;8.884;2023-07-13T01:55:07;14.70;99.90
74822;DHT22;63353;48.702;8.884;2023-07-13T01:57:33;14.70;99.90
74822;DHT22;63353;48.702;8.884;2023-07-13T01:59:59;14.60;99.90
74822;DHT22;63353;48.702;8.884;2023-07-13T02:02:24;14.60;99.90
74822;DHT22;63353;48.702;8.884;2023-07-13T02:04:50;14.60;99.90
74822;DHT22;63353;48.702;8.884;2023-07-13T02:07:19;14.50;99.90
74822;DHT22;63353;48.702;8.884;2023-07-13T02:09:47;14.40;99.90
74822;DHT22;63353;48.702;8.884;2023-07-13T02:12:19;14.40;99.90
74822;DHT22;63353;48.702;8.884;2023-07-13T02:14:50;14.30;99.90
74822;DHT22;63353;48.702;8.884;2023-07-13T02:17:16;14.20;99.90
74822;DHT22;63353;48.702;8.884;2023-07-13T02:19:42;14.10;99.90
74822;DHT22;63353;48.702;8.884;2023-07-13T02:22:20;14.10;99.90
74822;DHT22;63353;48.702;8.884;2023-07-13T02:24:49;14.00;99.90
74822;DHT22;63353;48.702;8.884;2023-07-13T02:27:24;14.00;99.90
74822;DHT22;63353;48.702;8.884;2023-07-13T02:29:53;13.90;99.90
74822;DHT22;63353;48.702;8.884;2023-07-13T02:32:22;13.90;99.90
74822;DHT22;63353;48.702;8.884;2023-07-13T02:34:48;13.90;99.90
74822;DHT22;63353;48.702;8.884;2023-07-13T02:37:16;13.80;99.90
74822;DHT22;63353;48.702;8.884;2023-07-13T02:39:45;13.70;99.90
74822;DHT22;63353;48.702;8.884;2023-07-13T02:42:11;13.70;99.90
74822;DHT22;63353;48.702;8.884;2023-07-13T02:44:36;13.60;99.90
74822;DHT22;63353;48.702;8.884;2023-07-13T02:47:02;13.60;99.90
74822;DHT22;63353;48.702;8.884;2023-07-13T02:49:30;13.60;99.90
74822;DHT22;63353;48.702;8.884;2023-07-13T02:51:56;13.60;99.90
74822;DHT22;63353;48.702;8.884;2023-07-13T02:54:22;13.60;99.90
74822;DHT22;63353;48.702;8.884;2023-07-13T02:56:47;13.60;99.90
74822;DHT22;63353;48.702;8.884;2023-07-13T02:59:13;13.60;99.90
74822;DHT22;63353;48.702;8.884;2023-07-13T03:01:39;13.60;99.90
74822;DHT22;63353;48.702;8.884;2023-07-13T03:04:11;13.60;99.90
74822;DHT22;63353;48.702;8.884;2023-07-13T03:06:40;13.60;99.90
74822;DHT22;63353;48.702;8.884;2023-07-13T03:09:06;13.70;99.90
74822;DHT22;63353;48.702;8.884;2023-07-13T03:11:37;13.70;99.90
74822;DHT22;63353;48.702;8.884;2023-07-13T03:14:03;13.70;99.90
74822;DHT22;63353;48.702;8.884;2023-07-13T03:16:35;13.60;99.90
74822;DHT22;63353;48.702;8.884;2023-07-13T03:19:00;13.60;99.90
74822;DHT22;63353;48.702;8.884;2023-07-13T03:21:32;13.70;99.90
74822;DHT22;63353;48.702;8.884;2023-07-13T03:24:04;13.70;99.90
74822;DHT22;63353;48.702;8.884;2023-07-13T03:26:29;13.60;99.90
74822;DHT22;63353;48.702;8.884;2023-07-13T03:28:55;13.60;99.90
74822;DHT22;63353;48.702;8.884;2023-07-13T03:31:28;13.50;99.90
74822;DHT22;63353;48.702;8.884;2023-07-13T03:34:06;13.40;99.90
74822;DHT22;63353;48.702;8.884;2023-07-13T03:36:34;13.40;99.90
74822;DHT22;63353;48.702;8.884;2023-07-13T03:39:02;13.40;99.90
74822;DHT22;63353;48.702;8.884;2023-07-13T03:41:28;13.30;99.90
74822;DHT22;63353;48.702;8.884;2023-07-13T03:43:54;13.30;99.90
74822;DHT22;63353;48.702;8.884;2023-07-13T03:46:26;13.30;99.90
74822;DHT22;63353;48.702;8.884;2023-07-13T03:49:01;13.30;99.90
74822;DHT22;63353;48.702;8.884;2023-07-13T03:51:27;13.40;99.90
74822;DHT22;63353;48.702;8.884;2023-07-13T03:53:52;13.40;99.90
74822;DHT22;63353;48.702;8.884;2023-07-13T03:56:27;13.40;99.90
74822;DHT22;63353;48.702;8.884;2023-07-13T03:58:56;13.50;99.90
74822;DHT22;63353;48.702;8.884;2023-07-13T04:01:23;13.50;99.90
74822;DHT22;63353;48.702;8.884;2023-07-13T04:03:51;13.50;99.90
74822;DHT22;63353;48.702;8.884;2023-07-13T04:06:23;13.50;99.90
74822;DHT22;63353;48.702;8.884;2023-07-13T04:08:55;13.40;99.90
74822;DHT22;63353;48.702;8.884;2023-07-13T04:11:23;13.40;99.90
74822;DHT22;63353;48.702;8.884;2023-07-13T04:13:50;13.40;99.90
74822;DHT22;63353;48.702;8.884;2023-07-13T04:16:17;13.30;99.90
74822;DHT22;63353;48.702;8.884;2023-07-13T04:18:44;13.30;99.90
74822;DHT22;63353;48.702;8.884;2023-07-13T04:21:13;13.30;99.90
74822;DHT22;63353;48.702;8.884;2023-07-13T04:23:42;13.30;99.90
74822;DHT22;63353;48.702;8.884;2023-07-13T04:26:08;13.20;99.90
74822;DHT22;63353;48.702;8.884;2023-07-13T04:28:34;13.20;99.90
74822;DHT22;63353;48.702;8.884;2023-07-13T04:31:00;13.10;99.90
74822;DHT22;63353;48.702;8.884;2023-07-13T04:33:32;13.10;99.90
74822;DHT22;63353;48.702;8.884;2023-07-13T04:35:57;13.10;99.90
74822;DHT22;63353;48.702;8.884;2023-07-13T04:38:27;13.10;99.90
74822;DHT22;63353;48.702;8.884;2023-07-13T04:40:56;13.10;99.90
74822;DHT22;63353;48.702;8.884;2023-07-13T04:43:22;13.10;99.90
74822;DHT22;63353;48.702;8.884;2023-07-13T04:45:49;13.10;99.90
74822;DHT22;63353;48.702;8.884;2023-07-13T04:48:15;13.10;99.90
74822;DHT22;63353;48.702;8.884;2023-07-13T04:50:41;13.10;99.90
74822;DHT22;63353;48.702;8.884;2023-07-13T04:53:09;13.10;99.90
74822;DHT22;63353;48.702;8.884;2023-07-13T04:55:42;13.10;99.90
74822;DHT22;63353;48.702;8.884;2023-07-13T04:58:07;13.20;99.90
74822;DHT22;63353;48.702;8.884;2023-07-13T05:00:36;13.20;99.90
74822;DHT22;63353;48.702;8.884;2023-07-13T05:03:03;13.40;99.90
74822;DHT22;63353;48.702;8.884;2023-07-13T05:05:28;13.50;99.90
74822;DHT22;63353;48.702;8.884;2023-07-13T05:08:00;13.60;99.90
74822;DHT22;63353;48.702;8.884;2023-07-13T05:10:26;13.80;99.90
74822;DHT22;63353;48.702;8.884;2023-07-13T05:12:52;13.90;99.90
74822;DHT22;63353;48.702;8.884;2023-07-13T05:15:20;14.10;99.90
74822;DHT22;63353;48.702;8.884;2023-07-13T05:17:47;14.20;99.90
74822;DHT22;63353;48.702;8.884;2023-07-13T05:20:17;14.40;99.90
74822;DHT22;63353;48.702;8.884;2023-07-13T05:22:49;14.40;99.90
74822;DHT22;63353;48.702;8.884;2023-07-13T05:25:15;14.50;99.90
74822;DHT22;63353;48.702;8.884;2023-07-13T05:27:41;14.60;99.90
74822;DHT22;63353;48.702;8.884;2023-07-13T05:30:11;14.70;99.90
74822;DHT22;63353;48.702;8.884;2023-07-13T05:32:37;14.70;99.90
74822;DHT22;63353;48.702;8.884;2023-07-13T05:35:03;14.80;99.90
74822;DHT22;63353;48.702;8.884;2023-07-13T05:37:29;14.80;99.90
74822;DHT22;63353;48.702;8.884;2023-07-13T05:39:55;14.90;99.90
74822;DHT22;63353;48.702;8.884;2023-07-13T05:42:20;15.00;99.90
74822;DHT22;63353;48.702;8.884;2023-07-13T05:44:46;15.10;99.90
74822;DHT22;63353;48.702;8.884;2023-07-13T05:47:14;15.20;99.90
74822;DHT22;63353;48.702;8.884;2023-07-13T05:49:40;15.30;99.90
74822;DHT22;63353;48.702;8.884;2023-07-13T05:52:07;15.50;99.90
74822;DHT22;63353;48.702;8.884;2023-07-13T05:54:32;15.50;99.90
74822;DHT22;63353;48.702;8.884;2023-07-13T05:56:58;15.70;99.90
74822;DHT22;63353;48.702;8.884;2023-07-13T05:59:24;15.80;99.90
74822;DHT22;63353;48.702;8.884;2023-07-13T06:01:50;15.90;99.90
74822;DHT22;63353;48.702;8.884;2023-07-13T06:04:17;16.00;99.90
74822;DHT22;63353;48.702;8.884;2023-07-13T06:06:43;16.10;99.90
74822;DHT22;63353;48.702;8.884;2023-07-13T06:09:09;16.20;99.90
74822;DHT22;63353;48.702;8.884;2023-07-13T06:11:34;16.40;99.90
74822;DHT22;63353;48.702;8.884;2023-07-13T06:14:00;16.50;99.90
74822;DHT22;63353;48.702;8.884;2023-07-13T06:16:26;16.50;99.90
74822;DHT22;63353;48.702;8.884;2023-07-13T06:18:51;16.60;99.90
74822;DHT22;63353;48.702;8.884;2023-07-13T06:21:22;16.80;99.90
74822;DHT22;63353;48.702;8.884;2023-07-13T06:23:49;17.10;99.90
74822;DHT22;63353;48.702;8.884;2023-07-13T06:26:16;17.30;99.90
74822;DHT22;63353;48.702;8.884;2023-07-13T06:28:43;17.50;99.90
74822;DHT22;63353;48.702;8.884;2023-07-13T06:31:10;17.80;99.90
74822;DHT22;63353;48.702;8.884;2023-07-13T06:33:37;17.90;99.90
74822;DHT22;63353;48.702;8.884;2023-07-13T06:36:04;18.20;99.90
74822;DHT22;63353;48.702;8.884;2023-07-13T06:38:30;18.50;99.90
74822;DHT22;63353;48.702;8.884;2023-07-13T06:40:56;18.70;99.90
74822;DHT22;63353;48.702;8.884;2023-07-13T06:43:21;18.90;99.90
74822;DHT22;63353;48.702;8.884;2023-07-13T06:45:48;19.10;99.90
74822;DHT22;63353;48.702;8.884;2023-07-13T06:48:24;19.20;99.90
74822;DHT22;63353;48.702;8.884;2023-07-13T06:50:50;19.50;99.90
74822;DHT22;63353;48.702;8.884;2023-07-13T06:53:23;19.60;99.90
74822;DHT22;63353;48.702;8.884;2023-07-13T06:55:49;19.40;99.90
74822;DHT22;63353;48.702;8.884;2023-07-13T06:58:16;19.50;99.90
74822;DHT22;63353;48.702;8.884;2023-07-13T07:00:46;19.60;99.90
74822;DHT22;63353;48.702;8.884;2023-07-13T07:03:15;19.60;99.90
74822;DHT22;63353;48.702;8.884;2023-07-13T07:05:44;19.60;99.90
74822;DHT22;63353;48.702;8.884;2023-07-13T07:08:12;19.80;99.90
74822;DHT22;63353;48.702;8.884;2023-07-13T07:10:50;20.00;99.90
74822;DHT22;63353;48.702;8.884;2023-07-13T07:13:31;20.20;99.90
74822;DHT22;63353;48.702;8.884;2023-07-13T07:15:56;20.40;99.90
74822;DHT22;63353;48.702;8.884;2023-07-13T07:18:22;20.60;99.90
74822;DHT22;63353;48.702;8.884;2023-07-13T07:20:49;20.50;99.90
74822;DHT22;63353;48.702;8.884;2023-07-13T07:23:14;20.70;99.90
74822;DHT22;63353;48.702;8.884;2023-07-13T07:25:40;20.70;99.90
74822;DHT22;63353;48.702;8.884;2023-07-13T07:28:08;20.50;99.90
74822;DHT22;63353;48.702;8.884;2023-07-13T07:30:37;20.60;99.90
74822;DHT22;63353;48.702;8.884;2023-07-13T07:33:09;21.00;99.90
74822;DHT22;63353;48.702;8.884;2023-07-13T07:35:35;21.10;99.90
74822;DHT22;63353;48.702;8.884;2023-07-13T07:38:00;21.30;99.90
74822;DHT22;63353;48.702;8.884;2023-07-13T07:40:26;21.40;99.90
74822;DHT22;63353;48.702;8.884;2023-07-13T07:42:52;21.30;99.90
74822;DHT22;63353;48.702;8.884;2023-07-13T07:45:27;21.50;99.90
74822;DHT22;63353;48.702;8.884;2023-07-13T07:47:59;21.40;99.90
74822;DHT22;63353;48.702;8.884;2023-07-13T07:50:26;21.40;99.90
74822;DHT22;63353;48.702;8.884;2023-07-13T07:53:01;21.50;99.90
74822;DHT22;63353;48.702;8.884;2023-07-13T07:55:27;21.80;99.90
74822;DHT22;63353;48.702;8.884;2023-07-13T07:57:54;22.10;99.90
74822;DHT22;63353;48.702;8.884;2023-07-13T08:00:20;22.20;99.90
74822;DHT22;63353;48.702;8.884;2023-07-13T08:02:46;22.40;99.90
74822;DHT22;63353;48.702;8.884;2023-07-13T08:05:11;22.40;99.90
74822;DHT22;63353;48.702;8.884;2023-07-13T08:07:38;22.60;99.90
74822;DHT22;63353;48.702;8.884;2023-07-13T08:10:05;22.70;99.90
74822;DHT22;63353;48.702;8.884;2023-07-13T08:12:35;22.70;99.90
74822;DHT22;63353;48.702;8.884;2023-07-13T08:15:01;22.80;99.90
74822;DHT22;63353;48.702;8.884;2023-07-13T08:17:27;22.90;99.90
74822;DHT22;63353;48.702;8.884;2023-07-13T08:19:53;22.90;99.90
74822;DHT22;63353;48.702;8.884;2023-07-13T08:22:19;23.20;99.90
74822;DHT22;63353;48.702;8.884;2023-07-13T08:24:44;23.30;99.90
74822;DHT22;63353;48.702;8.884;2023-07-13T08:27:10;23.40;99.90
74822;DHT22;63353;48.702;8.884;2023-07-13T08:29:37;23.30;99.90
74822;DHT22;63353;48.702;8.884;2023-07-13T08:32:04;23.20;99.90
74822;DHT22;63353;48.702;8.884;2023-07-13T08:34:30;23.40;99.90
74822;DHT22;63353;48.702;8.884;2023-07-13T08:36:55;23.30;99.90
74822;DHT22;63353;48.702;8.884;2023-07-13T08:39:21;23.60;99.90
74822;DHT22;63353;48.702;8.884;2023-07-13T08:41:53;23.80;99.90
74822;DHT22;63353;48.702;8.884;2023-07-13T08:45:13;23.60;99.90
74822;DHT22;63353;48.702;8.884;2023-07-13T08:47:16;24.20;99.90
74822;DHT22;63353;48.702;8.884;2023-07-13T08:49:44;25.00;99.90
74822;DHT22;63353;48.702;8.884;2023-07-13T08:52:42;24.80;99.90
74822;DHT22;63353;48.702;8.884;2023-07-13T08:57:45;24.80;99.90
74822;DHT22;63353;48.702;8.884;2023-07-13T09:00:12;24.50;99.90
74822;DHT22;63353;48.702;8.884;2023-07-13T09:02:52;24.20;99.90
74822;DHT22;63353;48.702;8.884;2023-07-13T09:05:38;24.10;99.90
74822;DHT22;63353;48.702;8.884;2023-07-13T09:10:30;23.10;99.90
74822;DHT22;63353;48.702;8.884;2023-07-13T09:13:08;23.00;99.90
74822;DHT22;63353;48.702;8.884;2023-07-13T09:15:43;23.20;99.90
74822;DHT22;63353;48.702;8.884;2023-07-13T09:20:52;23.90;99.90
74822;DHT22;63353;48.702;8.884;2023-07-13T09:23:23;24.10;99.90
74822;DHT22;63353;48.702;8.884;2023-07-13T09:25:54;24.00;99.90
74822;DHT22;63353;48.702;8.884;2023-07-13T09:28:26;23.70;99.90
74822;DHT22;63353;48.702;8.884;2023-07-13T09:30:58;23.20;99.90
74822;DHT22;63353;48.702;8.884;2023-07-13T09:33:26;23.10;99.90
74822;DHT22;63353;48.702;8.884;2023-07-13T09:35:55;23.20;99.90
74822;DHT22;63353;48.702;8.884;2023-07-13T09:38:24;22.90;99.90
74822;DHT22;63353;48.702;8.884;2023-07-13T09:41:31;23.20;99.90
74822;DHT22;63353;48.702;8.884;2023-07-13T09:46:45;24.80;99.90
74822;DHT22;63353;48.702;8.884;2023-07-13T09:49:11;25.70;99.90
74822;DHT22;63353;48.702;8.884;2023-07-13T09:51:40;25.50;98.50
74822;DHT22;63353;48.702;8.884;2023-07-13T09:54:09;25.10;99.90
74822;DHT22;63353;48.702;8.884;2023-07-13T09:56:42;26.00;99.90
74822;DHT22;63353;48.702;8.884;2023-07-13T09:59:20;26.50;99.90
74822;DHT22;63353;48.702;8.884;2023-07-13T10:01:46;26.50;99.10
74822;DHT22;63353;48.702;8.884;2023-07-13T10:04:17;26.20;98.80
74822;DHT22;63353;48.702;8.884;2023-07-13T10:06:44;26.00;99.90
74822;DHT22;63353;48.702;8.884;2023-07-13T10:09:14;26.00;99.70
74822;DHT22;63353;48.702;8.884;2023-07-13T10:11:40;25.70;96.00
74822;DHT22;63353;48.702;8.884;2023-07-13T10:16:37;24.80;96.10
74822;DHT22;63353;48.702;8.884;2023-07-13T10:21:53;25.10;98.80
74822;DHT22;63353;48.702;8.884;2023-07-13T10:24:31;25.60;99.60
74822;DHT22;63353;48.702;8.884;2023-07-13T10:29:53;25.50;93.90
74822;DHT22;63353;48.702;8.884;2023-07-13T10:32:22;24.80;95.90
74822;DHT22;63353;48.702;8.884;2023-07-13T10:34:50;24.50;96.80
74822;DHT22;63353;48.702;8.884;2023-07-13T10:37:29;24.20;97.10
74822;DHT22;63353;48.702;8.884;2023-07-13T10:39:57;24.30;97.10
74822;DHT22;63353;48.702;8.884;2023-07-13T10:42:40;24.10;95.20
74822;DHT22;63353;48.702;8.884;2023-07-13T10:45:19;24.70;97.50
74822;DHT22;63353;48.702;8.884;2023-07-13T10:47:46;25.70;98.10
74822;DHT22;63353;48.702;8.884;2023-07-13T10:50:19;25.60;93.90
74822;DHT22;63353;48.702;8.884;2023-07-13T10:52:48;25.00;94.80
74822;DHT22;63353;48.702;8.884;2023-07-13T10:55:40;25.30;95.50
74822;DHT22;63353;48.702;8.884;2023-07-13T10:58:29;25.40;95.10
74822;DHT22;63353;48.702;8.884;2023-07-13T11:01:17;25.00;95.70
74822;DHT22;63353;48.702;8.884;2023-07-13T11:08:58;25.60;97.60
74822;DHT22;63353;48.702;8.884;2023-07-13T11:18:51;26.20;92.70
74822;DHT22;63353;48.702;8.884;2023-07-13T11:21:25;26.10;92.40
74822;DHT22;63353;48.702;8.884;2023-07-13T11:31:54;25.00;92.10
74822;DHT22;63353;48.702;8.884;2023-07-13T11:34:38;26.10;95.70
74822;DHT22;63353;48.702;8.884;2023-07-13T11:37:11;27.50;94.40
74822;DHT22;63353;48.702;8.884;2023-07-13T11:39:42;27.00;87.40
74822;DHT22;63353;48.702;8.884;2023-07-13T11:42:13;27.40;89.60
74822;DHT22;63353;48.702;8.884;2023-07-13T11:44:45;27.90;89.20
74822;DHT22;63353;48.702;8.884;2023-07-13T11:47:17;29.00;90.70
74822;DHT22;63353;48.702;8.884;2023-07-13T11:49:49;28.50;82.60
74822;DHT22;63353;48.702;8.884;2023-07-13T11:52:17;27.40;87.80
74822;DHT22;63353;48.702;8.884;2023-07-13T11:54:57;26.30;90.00
74822;DHT22;63353;48.702;8.884;2023-07-13T11:57:31;25.70;91.00
74822;DHT22;63353;48.702;8.884;2023-07-13T12:00:09;25.40;90.90
74822;DHT22;63353;48.702;8.884;2023-07-13T12:02:40;26.20;89.60
74822;DHT22;63353;48.702;8.884;2023-07-13T12:05:10;26.90;88.60
74822;DHT22;63353;48.702;8.884;2023-07-13T12:07:38;26.60;85.70
74822;DHT22;63353;48.702;8.884;2023-07-13T12:10:27;26.40;85.60
74822;DHT22;63353;48.702;8.884;2023-07-13T12:13:02;26.10;89.10
74822;DHT22;63353;48.702;8.884;2023-07-13T12:15:43;25.80;89.00
74822;DHT22;63353;48.702;8.884;2023-07-13T12:18:23;25.70;87.90
74822;DHT22;63353;48.702;8.884;2023-07-13T12:20:57;26.10;88.40
74822;DHT22;63353;48.702;8.884;2023-07-13T12:23:35;26.30;87.40
74822;DHT22;63353;48.702;8.884;2023-07-13T12:26:06;26.80;86.50
74822;DHT22;63353;48.702;8.884;2023-07-13T12:28:33;26.70;85.10
74822;DHT22;63353;48.702;8.884;2023-07-13T12:31:01;25.90;86.80
74822;DHT22;63353;48.702;8.884;2023-07-13T12:33:29;26.50;87.00
74822;DHT22;63353;48.702;8.884;2023-07-13T12:35:55;26.90;83.70
74822;DHT22;63353;48.702;8.884;2023-07-13T12:38:25;26.60;83.60
74822;DHT22;63353;48.702;8.884;2023-07-13T12:40:52;25.40;85.40
74822;DHT22;63353;48.702;8.884;2023-07-13T12:43:20;25.00;86.30
74822;DHT22;63353;48.702;8.884;2023-07-13T12:46:01;25.50;87.50
74822;DHT22;63353;48.702;8.884;2023-07-13T12:48:27;26.70;85.10
74822;DHT22;63353;48.702;8.884;2023-07-13T12:50:54;27.90;81.20
74822;DHT22;63353;48.702;8.884;2023-07-13T12:53:28;28.30;78.10
74822;DHT22;63353;48.702;8.884;2023-07-13T12:55:58;28.40;80.60
74822;DHT22;63353;48.702;8.884;2023-07-13T12:58:41;28.90;85.50
74822;DHT22;63353;48.702;8.884;2023-07-13T13:01:10;28.20;79.50
74822;DHT22;63353;48.702;8.884;2023-07-13T13:03:52;28.30;78.50
74822;DHT22;63353;48.702;8.884;2023-07-13T13:08:49;28.40;81.00
74822;DHT22;63353;48.702;8.884;2023-07-13T13:11:15;29.40;76.00
74822;DHT22;63353;48.702;8.884;2023-07-13T13:13:42;28.70;79.20
74822;DHT22;63353;48.702;8.884;2023-07-13T13:16:19;29.10;75.20
74822;DHT22;63353;48.702;8.884;2023-07-13T13:18:45;29.00;75.00
74822;DHT22;63353;48.702;8.884;2023-07-13T13:21:11;28.50;74.10
74822;DHT22;63353;48.702;8.884;2023-07-13T13:23:37;28.40;76.20
74822;DHT22;63353;48.702;8.884;2023-07-13T13:26:05;27.40;77.50
74822;DHT22;63353;48.702;8.884;2023-07-13T13:28:31;27.90;79.20
74822;DHT22;63353;48.702;8.884;2023-07-13T13:30:58;28.50;77.60
74822;DHT22;63353;48.702;8.884;2023-07-13T13:33:24;28.80;76.40
74822;DHT22;63353;48.702;8.884;2023-07-13T13:35:50;28.70;76.80
74822;DHT22;63353;48.702;8.884;2023-07-13T13:38:18;27.70;76.60
74822;DHT22;63353;48.702;8.884;2023-07-13T13:40:45;27.80;76.70
74822;DHT22;63353;48.702;8.884;2023-07-13T13:43:18;28.00;77.10
74822;DHT22;63353;48.702;8.884;2023-07-13T13:45:45;28.50;82.20
74822;DHT22;63353;48.702;8.884;2023-07-13T13:48:20;28.70;77.50
74822;DHT22;63353;48.702;8.884;2023-07-13T13:50:48;28.80;75.60
74822;DHT22;63353;48.702;8.884;2023-07-13T13:53:14;29.60;79.30
74822;DHT22;63353;48.702;8.884;2023-07-13T13:55:40;30.00;78.60
74822;DHT22;63353;48.702;8.884;2023-07-13T13:58:08;30.50;77.30
74822;DHT22;63353;48.702;8.884;2023-07-13T14:00:35;30.80;70.60
74822;DHT22;63353;48.702;8.884;2023-07-13T14:03:01;30.60;71.10
74822;DHT22;63353;48.702;8.884;2023-07-13T14:05:27;29.70;69.70
74822;DHT22;63353;48.702;8.884;2023-07-13T14:07:55;30.10;73.70
74822;DHT22;63353;48.702;8.884;2023-07-13T14:10:22;29.90;69.70
74822;DHT22;63353;48.702;8.884;2023-07-13T14:12:52;30.20;71.40
74822;DHT22;63353;48.702;8.884;2023-07-13T14:15:25;30.40;68.20
74822;DHT22;63353;48.702;8.884;2023-07-13T14:17:51;29.80;69.80
74822;DHT22;63353;48.702;8.884;2023-07-13T14:20:19;28.30;73.30
74822;DHT22;63353;48.702;8.884;2023-07-13T14:22:45;27.10;76.70
74822;DHT22;63353;48.702;8.884;2023-07-13T14:25:12;26.60;77.30
74822;DHT22;63353;48.702;8.884;2023-07-13T14:27:43;26.20;79.60
74822;DHT22;63353;48.702;8.884;2023-07-13T14:32:40;26.00;78.60
74822;DHT22;63353;48.702;8.884;2023-07-13T14:35:07;26.30;80.90
74822;DHT22;63353;48.702;8.884;2023-07-13T14:37:33;28.50;77.90
74822;DHT22;63353;48.702;8.884;2023-07-13T14:39:59;29.80;74.90
74822;DHT22;63353;48.702;8.884;2023-07-13T14:42:25;30.70;72.70
74822;DHT22;63353;48.702;8.884;2023-07-13T14:44:51;31.00;72.00
74822;DHT22;63353;48.702;8.884;2023-07-13T14:47:18;31.00;70.60
74822;DHT22;63353;48.702;8.884;2023-07-13T14:49:44;30.50;72.30
74822;DHT22;63353;48.702;8.884;2023-07-13T14:54:36;29.70;77.00
74822;DHT22;63353;48.702;8.884;2023-07-13T14:57:13;30.20;72.00
74822;DHT22;63353;48.702;8.884;2023-07-13T14:59:39;29.40;73.60
74822;DHT22;63353;48.702;8.884;2023-07-13T15:02:37;30.30;71.90
74822;DHT22;63353;48.702;8.884;2023-07-13T15:05:12;30.80;70.50
74822;DHT22;63353;48.702;8.884;2023-07-13T15:07:38;29.90;69.80
74822;DHT22;63353;48.702;8.884;2023-07-13T15:10:25;31.20;69.10
74822;DHT22;63353;48.702;8.884;2023-07-13T15:12:52;31.00;69.20
74822;DHT22;63353;48.702;8.884;2023-07-13T15:15:18;30.10;67.60
74822;DHT22;63353;48.702;8.884;2023-07-13T15:17:46;29.70;70.60
74822;DHT22;63353;48.702;8.884;2023-07-13T15:20:31;29.20;71.20
74822;DHT22;63353;48.702;8.884;2023-07-13T15:22:57;29.30;71.10
74822;DHT22;63353;48.702;8.884;2023-07-13T15:25:27;29.70;69.80
74822;DHT22;63353;48.702;8.884;2023-07-13T15:27:56;28.30;71.90
74822;DHT22;63353;48.702;8.884;2023-07-13T15:30:27;27.80;72.30
74822;DHT22;63353;48.702;8.884;2023-07-13T15:33:13;28.70;72.80
74822;DHT22;63353;48.702;8.884;2023-07-13T15:35:40;29.30;72.00
74822;DHT22;63353;48.702;8.884;2023-07-13T15:38:18;30.80;71.20
74822;DHT22;63353;48.702;8.884;2023-07-13T15:40:44;31.70;67.90
74822;DHT22;63353;48.702;8.884;2023-07-13T15:43:14;32.20;66.50
74822;DHT22;63353;48.702;8.884;2023-07-13T15:45:40;33.40;62.60
74822;DHT22;63353;48.702;8.884;2023-07-13T15:48:17;33.40;62.90
74822;DHT22;63353;48.702;8.884;2023-07-13T15:50:46;32.90;62.50
74822;DHT22;63353;48.702;8.884;2023-07-13T15:53:22;31.60;64.40
74822;DHT22;63353;48.702;8.884;2023-07-13T15:55:49;32.10;63.90
74822;DHT22;63353;48.702;8.884;2023-07-13T15:58:15;31.40;63.10
74822;DHT22;63353;48.702;8.884;2023-07-13T16:00:47;30.30;67.60
74822;DHT22;63353;48.702;8.884;2023-07-13T16:03:21;29.40;68.30
74822;DHT22;63353;48.702;8.884;2023-07-13T16:05:56;27.90;69.30
74822;DHT22;63353;48.702;8.884;2023-07-13T16:08:31;28.60;69.30
74822;DHT22;63353;48.702;8.884;2023-07-13T16:10:59;29.90;66.80
74822;DHT22;63353;48.702;8.884;2023-07-13T16:13:25;31.10;65.60
74822;DHT22;63353;48.702;8.884;2023-07-13T16:15:52;30.70;63.30
74822;DHT22;63353;48.702;8.884;2023-07-13T16:18:27;30.40;65.10
74822;DHT22;63353;48.702;8.884;2023-07-13T16:20:53;31.70;63.90
74822;DHT22;63353;48.702;8.884;2023-07-13T16:23:25;32.00;63.60
74822;DHT22;63353;48.702;8.884;2023-07-13T16:25:54;32.20;62.90
74822;DHT22;63353;48.702;8.884;2023-07-13T16:28:20;32.70;60.70
74822;DHT22;63353;48.702;8.884;2023-07-13T16:30:51;32.90;62.20
74822;DHT22;63353;48.702;8.884;2023-07-13T16:33:26;32.70;62.40
74822;DHT22;63353;48.702;8.884;2023-07-13T16:35:52;33.20;60.60